Terminal Aerodrome Forecast
Issued by NWS Tulsa, OK

Home | Current Version | Previous Version | Text Only | Print | Product List | Glossary On
Versions: 1 2 3 4 5 6 7 8 9 10 11 12 13 14 15 16
000
FTUS44 KTSA 160900 AAB
TAFFSM
TAF AMD
KFSM 160901Z 1609/1706 00000KT 5SM BR SCT003
      TEMPO 1609/1611 2SM BR BKN003
     FM161500 04006KT P6SM OVC050
     FM170000 10003KT P6SM SCT250=

USA.gov is the U.S. government's official web portal to all federal, state and local government web resources and services.